createdAt,value
2019-01-31T00:02:37.809Z,93788.23
2019-01-31T00:05:51.303Z,93783.47
2019-01-31T00:08:59.541Z,93780.61
2019-01-31T00:12:05.681Z,93774.09
2019-01-31T00:14:53.727Z,93774.27
2019-01-31T00:17:38.409Z,93774.27
2019-01-31T00:20:26.551Z,93775.62
2019-01-31T00:23:28.121Z,93773.70
2019-01-31T00:26:42.562Z,93779.42
2019-01-31T00:29:28.500Z,93773.90
2019-01-31T00:32:59.202Z,93763.23
2019-01-31T00:36:01.382Z,93767.86
2019-01-31T00:39:28.601Z,93766.21
2019-01-31T00:42:13.802Z,93770.44
2019-01-31T00:45:41.057Z,93763.06
2019-01-31T00:48:14.841Z,93770.56
2019-01-31T00:50:50.640Z,93766.25
2019-01-31T00:53:45.589Z,93759.00
2019-01-31T00:56:33.368Z,93760.13
2019-01-31T00:59:12.556Z,93762.83
2019-01-31T01:02:18.078Z,93762.30
2019-01-31T01:05:34.661Z,93766.53
2019-01-31T01:08:39.866Z,93771.17
2019-01-31T01:11:54.549Z,93771.91
2019-01-31T01:14:57.163Z,93766.03
2019-01-31T01:17:42.901Z,93762.39
2019-01-31T01:20:47.561Z,93759.45
2019-01-31T01:23:21.321Z,93762.33
2019-01-31T01:26:14.152Z,93752.98
2019-01-31T01:29:17.944Z,93760.28
2019-01-31T01:32:39.201Z,93766.67
2019-01-31T01:35:47.609Z,93769.33
2019-01-31T01:39:01.569Z,93763.40
2019-01-31T01:41:38.939Z,93760.89
2019-01-31T01:44:30.137Z,93761.34
2019-01-31T01:47:39.479Z,93754.81
2019-01-31T01:50:35.085Z,93756.75
2019-01-31T01:53:34.386Z,93755.66
2019-01-31T01:56:43.320Z,93750.80
2019-01-31T01:59:42.912Z,93748.92
2019-01-31T02:02:55.721Z,93749.98
2019-01-31T02:05:59.098Z,93740.67
2019-01-31T02:09:07.984Z,93729.81
2019-01-31T02:12:15.426Z,93724.17
2019-01-31T02:15:05.462Z,93724.17
2019-01-31T02:17:49.166Z,93721.66
2019-01-31T02:20:28.677Z,93720.95
2019-01-31T02:23:21.161Z,93720.73
2019-01-31T02:26:22.588Z,93723.17
2019-01-31T02:29:20.761Z,93723.17
2019-01-31T02:32:04.919Z,93718.31
2019-01-31T02:35:00.979Z,93716.57
2019-01-31T02:37:56.147Z,93713.41
2019-01-31T02:40:46.546Z,93710.61
2019-01-31T02:43:48.178Z,93705.67
2019-01-31T02:46:52.426Z,93706.85
2019-01-31T02:49:52.122Z,93702.19
2019-01-31T02:53:09.431Z,93702.19
2019-01-31T02:56:25.966Z,93706.95
2019-01-31T02:59:40.493Z,93686.78
2019-01-31T03:02:49.261Z,93693.02
2019-01-31T03:05:38.072Z,93703.28
2019-01-31T03:08:16.921Z,93685.09
2019-01-31T03:11:09.523Z,93690.33
2019-01-31T03:14:09.549Z,93690.92
2019-01-31T03:16:56.309Z,93691.59
2019-01-31T03:19:58.658Z,93684.41
2019-01-31T03:23:15.721Z,93684.41
2019-01-31T03:26:05.074Z,93686.58
2019-01-31T03:28:59.982Z,93688.42
2019-01-31T03:32:17.976Z,93692.39
2019-01-31T03:35:38.761Z,93692.49
2019-01-31T03:38:26.610Z,93691.49
2019-01-31T03:41:17.825Z,93688.77
2019-01-31T03:43:55.301Z,93688.77
2019-01-31T03:46:46.700Z,93684.86
2019-01-31T03:49:58.187Z,93684.86
2019-01-31T03:53:15.369Z,93686.23
2019-01-31T03:55:57.176Z,93690.28
2019-01-31T03:58:57.587Z,93688.63
2019-01-31T04:02:23.787Z,93688.63
2019-01-31T04:05:09.404Z,93686.89
2019-01-31T04:07:36.809Z,93682.28
2019-01-31T04:10:05.843Z,93684.44
2019-01-31T04:12:33.257Z,93684.44
2019-01-31T04:15:00.644Z,93678.46
2019-01-31T04:17:28.001Z,93683.35
2019-01-31T04:19:55.474Z,93674.11
2019-01-31T04:22:22.840Z,93674.11
2019-01-31T04:24:50.228Z,93678.84
2019-01-31T04:27:17.694Z,93680.52
2019-01-31T04:29:45.147Z,93680.52
2019-01-31T04:32:12.569Z,93681.47
2019-01-31T04:34:39.942Z,93681.47
2019-01-31T04:37:07.343Z,93671.69
2019-01-31T04:39:34.774Z,93671.30
2019-01-31T04:42:02.141Z,93671.08
2019-01-31T04:44:29.504Z,93671.08
2019-01-31T04:46:56.923Z,93670.45
2019-01-31T04:49:24.308Z,93660.98
2019-01-31T04:51:51.680Z,93664.59
2019-01-31T04:54:19.081Z,93664.59
2019-01-31T04:56:46.449Z,93656.16
2019-01-31T04:59:13.779Z,93663.50
2019-01-31T05:01:41.167Z,93663.50
2019-01-31T05:04:08.586Z,93666.05
2019-01-31T05:06:35.965Z,93668.89
2019-01-31T05:09:06.401Z,93665.71
2019-01-31T05:11:33.760Z,93660.23
2019-01-31T05:14:01.152Z,93660.23
2019-01-31T05:16:28.560Z,93667.44
2019-01-31T05:18:55.941Z,93668.73
2019-01-31T05:21:23.302Z,93663.08
2019-01-31T05:23:50.739Z,93663.82
2019-01-31T05:26:18.122Z,93658.55
2019-01-31T05:28:45.486Z,93658.55
2019-01-31T05:31:12.884Z,93651.06
2019-01-31T05:33:40.273Z,93660.90
2019-01-31T05:36:07.699Z,93663.30
2019-01-31T05:38:35.106Z,93663.30
2019-01-31T05:41:02.498Z,93661.70
2019-01-31T05:43:29.930Z,93667.74
2019-01-31T05:45:57.271Z,93657.97
2019-01-31T05:48:24.650Z,93657.97
2019-01-31T05:50:52.035Z,93673.09
2019-01-31T05:53:19.426Z,93658.35
2019-01-31T05:55:46.802Z,93661.28
2019-01-31T05:58:14.229Z,93667.23
2019-01-31T06:00:42.027Z,93667.23
2019-01-31T06:03:10.145Z,93665.19
2019-01-31T06:05:37.683Z,93670.39
2019-01-31T06:08:05.125Z,93682.60
2019-01-31T06:10:33.677Z,93682.60
2019-01-31T06:13:01.419Z,93680.44
2019-01-31T06:15:28.803Z,93695.52
2019-01-31T06:17:56.254Z,93698.66
2019-01-31T06:20:24.243Z,93700.77
2019-01-31T06:22:51.612Z,93700.77
2019-01-31T06:25:19.032Z,93696.81
2019-01-31T06:27:46.541Z,93703.07
2019-01-31T06:30:15.242Z,93708.53
2019-01-31T06:32:42.678Z,93709.12
2019-01-31T06:35:10.083Z,93711.13
2019-01-31T06:37:37.480Z,93704.61
2019-01-31T06:40:06.203Z,93715.54
2019-01-31T06:42:33.604Z,93715.54
2019-01-31T06:45:00.968Z,93711.47
2019-01-31T06:47:28.400Z,93701.00
2019-01-31T06:49:55.760Z,93701.00
2019-01-31T06:52:23.105Z,93700.88
2019-01-31T06:54:50.520Z,93704.99
2019-01-31T06:57:17.885Z,93702.69
2019-01-31T06:59:45.267Z,93702.69
2019-01-31T07:02:12.641Z,93706.52
2019-01-31T07:04:40.051Z,93708.12
2019-01-31T07:07:07.486Z,93702.28
2019-01-31T07:09:34.883Z,93699.36
2019-01-31T07:12:02.457Z,93699.36
2019-01-31T07:14:29.865Z,93697.94
2019-01-31T07:16:57.261Z,93693.70
2019-01-31T07:19:24.661Z,93693.70
2019-01-31T07:21:52.051Z,93703.59
2019-01-31T07:24:19.421Z,93698.45
2019-01-31T07:26:47.520Z,93713.77
2019-01-31T07:29:14.906Z,93719.83
2019-01-31T07:31:42.346Z,93721.47
2019-01-31T07:34:09.743Z,93716.56
2019-01-31T07:36:37.146Z,93716.83
2019-01-31T07:39:07.300Z,93702.20
2019-01-31T07:41:41.556Z,93702.20
2019-01-31T07:44:03.964Z,93710.95
2019-01-31T07:46:31.361Z,93706.23
2019-01-31T07:48:58.760Z,93699.61
2019-01-31T07:51:26.110Z,93699.61
2019-01-31T07:53:53.528Z,93698.80
2019-01-31T07:56:20.879Z,93690.41
2019-01-31T07:58:48.629Z,93690.41
2019-01-31T08:01:16.582Z,93704.54
2019-01-31T08:03:43.931Z,93702.55
2019-01-31T08:06:11.318Z,93709.68
2019-01-31T08:08:40.058Z,93709.68
2019-01-31T08:11:07.521Z,93706.75
2019-01-31T08:13:34.950Z,93713.94
2019-01-31T08:16:02.316Z,93713.94
2019-01-31T08:18:29.742Z,93713.84
2019-01-31T08:20:57.094Z,93713.84
2019-01-31T08:23:24.479Z,93705.14
2019-01-31T08:25:51.872Z,93721.74
2019-01-31T08:28:19.235Z,93721.74
2019-01-31T08:30:46.663Z,93716.22
2019-01-31T08:33:14.055Z,93719.67
2019-01-31T08:35:41.403Z,93716.03
2019-01-31T08:38:08.819Z,93718.88
2019-01-31T08:40:36.294Z,93722.65
2019-01-31T08:43:03.670Z,93722.83
2019-01-31T08:45:31.040Z,93718.63
2019-01-31T08:47:58.394Z,93721.08
2019-01-31T08:50:27.621Z,93723.61
2019-01-31T08:52:55.593Z,93712.93
2019-01-31T08:55:22.935Z,93711.63
2019-01-31T08:57:50.336Z,93712.42
2019-01-31T09:00:26.016Z,93709.61
2019-01-31T09:02:53.554Z,93708.58
2019-01-31T09:05:21.027Z,93705.20
2019-01-31T09:07:48.422Z,93704.54
2019-01-31T09:10:18.282Z,93697.32
2019-01-31T09:12:45.659Z,93695.69
2019-01-31T09:15:15.639Z,93701.47
2019-01-31T09:17:43.014Z,93698.25
2019-01-31T09:20:12.902Z,93705.63
2019-01-31T09:23:13.699Z,93702.33
2019-01-31T09:26:40.705Z,93699.61
2019-01-31T09:29:40.059Z,93699.61
2019-01-31T09:32:57.931Z,93709.23
2019-01-31T09:36:12.290Z,93712.17
2019-01-31T09:39:14.467Z,93712.17
2019-01-31T09:42:11.933Z,93702.59
2019-01-31T09:45:23.633Z,93702.59
2019-01-31T09:48:20.602Z,93705.98
2019-01-31T09:51:08.879Z,93711.69
2019-01-31T09:54:23.749Z,93711.38
2019-01-31T09:57:26.140Z,93701.02
2019-01-31T10:00:27.662Z,93707.38
2019-01-31T10:03:34.831Z,93707.38
2019-01-31T10:06:52.876Z,93718.94
2019-01-31T10:10:13.117Z,93712.46
2019-01-31T10:13:09.073Z,93707.72
2019-01-31T10:16:04.737Z,93707.10
2019-01-31T10:19:38.486Z,93703.72
2019-01-31T10:22:42.312Z,93704.31
2019-01-31T10:25:26.799Z,93694.98
2019-01-31T10:28:39.141Z,93683.41
2019-01-31T10:31:47.700Z,93683.82
2019-01-31T10:34:38.870Z,93682.14
2019-01-31T10:37:48.106Z,93676.02
2019-01-31T10:40:45.273Z,93683.30
2019-01-31T10:43:25.546Z,93678.09
2019-01-31T10:46:17.790Z,93678.73
2019-01-31T10:49:42.059Z,93678.73
2019-01-31T10:52:41.108Z,93669.80
2019-01-31T10:55:44.371Z,93658.73
2019-01-31T10:58:47.401Z,93658.73
2019-01-31T11:01:29.001Z,93658.92
2019-01-31T11:04:37.009Z,93650.84
2019-01-31T11:07:44.585Z,93644.33
2019-01-31T11:10:53.114Z,93642.58
2019-01-31T11:13:46.781Z,93633.73
2019-01-31T11:17:03.789Z,93623.45
2019-01-31T11:20:15.121Z,93614.90
2019-01-31T11:23:14.584Z,93605.67
2019-01-31T11:26:41.522Z,93611.86
2019-01-31T11:29:56.204Z,93611.00
2019-01-31T11:32:44.650Z,93595.34
2019-01-31T11:35:38.569Z,93593.95
2019-01-31T11:38:37.636Z,93582.26
2019-01-31T11:41:33.586Z,93579.91
2019-01-31T11:44:38.114Z,93576.27
2019-01-31T11:47:26.067Z,93567.58
2019-01-31T11:50:44.171Z,93564.91
2019-01-31T11:53:52.372Z,93571.80
2019-01-31T11:56:44.833Z,93567.52
2019-01-31T11:59:12.235Z,93557.64
2019-01-31T12:01:39.721Z,93562.72
2019-01-31T12:04:19.160Z,93555.19
2019-01-31T12:06:46.537Z,93558.20
2019-01-31T12:09:21.019Z,93558.20
2019-01-31T12:11:48.441Z,93555.23
2019-01-31T12:14:15.881Z,93558.42
2019-01-31T12:16:43.282Z,93563.46
2019-01-31T12:19:10.890Z,93544.37
2019-01-31T12:21:38.407Z,93544.37
2019-01-31T12:24:15.798Z,93553.32
2019-01-31T12:26:35.238Z,93551.96
2019-01-31T12:29:03.090Z,93531.48
2019-01-31T12:31:30.594Z,93531.48
2019-01-31T12:33:58.194Z,93534.17
2019-01-31T12:36:25.590Z,93539.25
2019-01-31T12:38:54.988Z,93532.94
2019-01-31T12:41:22.402Z,93528.91
2019-01-31T12:43:49.764Z,93524.45
2019-01-31T12:46:17.294Z,93524.27
2019-01-31T12:48:44.675Z,93503.66
2019-01-31T12:51:12.071Z,93509.08
2019-01-31T12:53:39.469Z,93502.67
2019-01-31T12:56:06.851Z,93497.46
2019-01-31T12:58:34.293Z,93499.08
2019-01-31T13:01:01.668Z,93495.09
2019-01-31T13:03:29.162Z,93482.03
2019-01-31T13:05:56.613Z,93485.02
2019-01-31T13:08:24.056Z,93474.34
2019-01-31T13:10:51.466Z,93473.57
2019-01-31T13:13:18.865Z,93470.86
2019-01-31T13:15:46.298Z,93471.52
2019-01-31T13:18:13.752Z,93469.01
2019-01-31T13:20:43.472Z,93467.55
2019-01-31T13:23:11.387Z,93471.40
2019-01-31T13:25:38.762Z,93466.72
2019-01-31T13:28:07.381Z,93466.16
2019-01-31T13:30:34.852Z,93467.36
2019-01-31T13:33:02.285Z,93468.53
2019-01-31T13:35:29.821Z,93464.13
2019-01-31T13:37:57.202Z,93454.98
2019-01-31T13:40:26.177Z,93454.95
2019-01-31T13:42:54.514Z,93456.16
2019-01-31T13:45:28.214Z,93449.94
2019-01-31T13:47:57.273Z,93451.64
2019-01-31T13:50:24.686Z,93455.47
2019-01-31T13:52:56.575Z,93465.69
2019-01-31T13:55:26.845Z,93458.38
2019-01-31T13:57:54.598Z,93458.38
2019-01-31T14:00:23.688Z,93453.83
2019-01-31T14:02:53.320Z,93448.80
2019-01-31T14:05:21.359Z,93448.80
2019-01-31T14:07:48.868Z,93450.62
2019-01-31T14:10:23.582Z,93446.47
2019-01-31T14:12:51.157Z,93449.35
2019-01-31T14:15:39.448Z,93461.03
2019-01-31T14:18:06.935Z,93461.52
2019-01-31T14:20:34.518Z,93461.91
2019-01-31T14:23:02.101Z,93463.02
2019-01-31T14:25:29.650Z,93462.25
2019-01-31T14:27:57.208Z,93459.17
2019-01-31T14:30:33.137Z,93459.17
2019-01-31T14:33:01.752Z,93442.95
2019-01-31T14:35:29.636Z,93452.56
2019-01-31T14:37:57.262Z,93439.27
2019-01-31T14:40:25.644Z,93445.65
2019-01-31T14:42:55.884Z,93455.42
2019-01-31T14:45:29.854Z,93455.42
2019-01-31T14:47:57.492Z,93455.23
2019-01-31T14:50:29.525Z,93459.08
2019-01-31T14:52:58.937Z,93464.99
2019-01-31T14:55:28.902Z,93466.69
2019-01-31T14:57:56.570Z,93469.35
2019-01-31T15:00:26.295Z,93468.70
2019-01-31T15:02:54.600Z,93470.97
2019-01-31T15:05:22.210Z,93477.93
2019-01-31T15:07:49.785Z,93485.16
2019-01-31T15:10:21.321Z,93485.16
2019-01-31T15:12:49.450Z,93481.72
2019-01-31T15:15:17.095Z,93481.72
2019-01-31T15:17:44.782Z,93488.86
2019-01-31T15:20:16.186Z,93488.86
2019-01-31T15:22:44.998Z,93489.59
2019-01-31T15:25:12.773Z,93494.17
2019-01-31T15:27:41.011Z,93494.55
2019-01-31T15:30:11.212Z,93499.48
2019-01-31T15:32:39.223Z,93499.48
2019-01-31T15:35:09.437Z,93501.15
2019-01-31T15:37:39.207Z,93509.05
2019-01-31T15:40:10.829Z,93511.81
2019-01-31T15:42:38.660Z,93513.63
2019-01-31T15:45:07.152Z,93506.77
2019-01-31T15:47:36.318Z,93506.77
2019-01-31T15:50:05.654Z,93510.14
2019-01-31T15:52:33.661Z,93510.14
2019-01-31T15:55:02.268Z,93514.72
2019-01-31T15:57:30.887Z,93509.38
2019-01-31T15:59:58.791Z,93508.39
2019-01-31T16:02:26.848Z,93510.43
2019-01-31T16:04:54.836Z,93507.56
2019-01-31T16:07:25.297Z,93508.48
2019-01-31T16:09:53.705Z,93509.94
2019-01-31T16:12:22.227Z,93514.73
2019-01-31T16:14:54.846Z,93517.20
2019-01-31T16:17:20.580Z,93513.51
2019-01-31T16:19:49.406Z,93511.12
2019-01-31T16:22:17.366Z,93514.51
2019-01-31T16:24:45.321Z,93515.79
2019-01-31T16:27:13.336Z,93511.27
2019-01-31T16:29:41.232Z,93514.94
2019-01-31T16:32:09.265Z,93515.19
2019-01-31T16:34:37.187Z,93517.34
2019-01-31T16:37:05.118Z,93506.73
2019-01-31T16:39:33.121Z,93519.16
2019-01-31T16:42:01.168Z,93518.84
2019-01-31T16:44:29.621Z,93532.13
2019-01-31T16:46:58.177Z,93532.13
2019-01-31T16:49:26.530Z,93538.06
2019-01-31T16:51:54.487Z,93540.91
2019-01-31T16:54:22.936Z,93538.06
2019-01-31T16:56:51.924Z,93543.34
2019-01-31T16:59:22.357Z,93554.80
2019-01-31T17:01:50.431Z,93562.13
2019-01-31T17:04:18.518Z,93564.32
2019-01-31T17:06:49.466Z,93569.92
2019-01-31T17:09:18.206Z,93559.22
2019-01-31T17:11:45.916Z,93552.29
2019-01-31T17:14:16.683Z,93551.69
2019-01-31T17:16:44.818Z,93550.03
2019-01-31T17:19:13.891Z,93560.29
2019-01-31T17:21:44.622Z,93564.75
2019-01-31T17:24:12.629Z,93578.84
2019-01-31T17:26:40.431Z,93558.84
2019-01-31T17:29:08.395Z,93563.00
2019-01-31T17:31:38.437Z,93562.18
2019-01-31T17:34:07.009Z,93562.18
2019-01-31T17:36:34.974Z,93564.47
2019-01-31T17:39:07.061Z,93560.95
2019-01-31T17:41:35.165Z,93561.88
2019-01-31T17:44:03.213Z,93561.88
2019-01-31T17:46:34.079Z,93563.84
2019-01-31T17:49:02.332Z,93561.37
2019-01-31T17:51:30.379Z,93561.37
2019-01-31T17:54:01.556Z,93558.13
2019-01-31T17:56:30.691Z,93557.89
2019-01-31T17:58:59.122Z,93557.89
2019-01-31T18:01:38.684Z,93553.77
2019-01-31T18:04:07.572Z,93553.77
2019-01-31T18:06:35.506Z,93530.93
2019-01-31T18:09:08.064Z,93537.08
2019-01-31T18:11:36.138Z,93537.08
2019-01-31T18:14:05.130Z,93537.66
2019-01-31T18:16:36.088Z,93530.39
2019-01-31T18:19:04.632Z,93528.56
2019-01-31T18:21:32.595Z,93528.56
2019-01-31T18:24:00.661Z,93536.11
2019-01-31T18:26:28.613Z,93544.12
2019-01-31T18:28:56.665Z,93549.98
2019-01-31T18:31:24.557Z,93554.91
2019-01-31T18:33:55.463Z,93550.80
2019-01-31T18:36:23.443Z,93550.80
2019-01-31T18:38:51.489Z,93544.62
2019-01-31T18:41:19.457Z,93546.40
2019-01-31T18:43:48.361Z,93542.25
2019-01-31T18:46:16.814Z,93542.46
2019-01-31T18:48:45.386Z,93539.98
2019-01-31T18:51:16.137Z,93544.06
2019-01-31T18:53:44.355Z,93544.06
2019-01-31T18:56:13.095Z,93549.45
2019-01-31T18:58:41.879Z,93544.85
2019-01-31T19:01:09.923Z,93543.55
2019-01-31T19:03:38.817Z,93543.46
2019-01-31T19:06:08.065Z,93543.46
2019-01-31T19:08:37.371Z,93540.44
2019-01-31T19:11:05.454Z,93531.98
2019-01-31T19:13:33.590Z,93537.13
2019-01-31T19:16:05.378Z,93537.06
2019-01-31T19:18:32.707Z,93545.13
2019-01-31T19:21:01.731Z,93544.98
2019-01-31T19:23:29.811Z,93544.98
2019-01-31T19:25:59.000Z,93550.23
2019-01-31T19:28:26.976Z,93550.23
2019-01-31T19:30:55.266Z,93550.22
2019-01-31T19:33:23.677Z,93539.38
2019-01-31T19:35:53.404Z,93528.81
2019-01-31T19:38:22.891Z,93538.52
2019-01-31T19:40:51.031Z,93542.66
2019-01-31T19:43:19.090Z,93542.66
2019-01-31T19:45:48.977Z,93537.30
2019-01-31T19:48:17.031Z,93537.30
2019-01-31T19:50:45.565Z,93530.34
2019-01-31T19:53:14.717Z,93530.34
2019-01-31T19:55:42.998Z,93525.02
2019-01-31T19:58:11.651Z,93519.41
2019-01-31T20:00:43.041Z,93515.47
2019-01-31T20:03:11.020Z,93510.06
2019-01-31T20:05:43.915Z,93508.33
2019-01-31T20:08:13.847Z,93504.66
2019-01-31T20:10:44.251Z,93504.66
2019-01-31T20:13:13.879Z,93495.30
2019-01-31T20:15:42.460Z,93502.97
2019-01-31T20:18:10.790Z,93503.69
2019-01-31T20:20:39.500Z,93503.69
2019-01-31T20:23:10.924Z,93495.34
2019-01-31T20:25:40.087Z,93498.04
2019-01-31T20:28:08.568Z,93496.62
2019-01-31T20:30:38.574Z,93497.80
2019-01-31T20:33:08.994Z,93501.28
2019-01-31T20:35:38.463Z,93496.02
2019-01-31T20:38:06.617Z,93496.02
2019-01-31T20:40:45.537Z,93490.17
2019-01-31T20:43:14.419Z,93500.69
2019-01-31T20:45:42.792Z,93500.69
2019-01-31T20:48:13.023Z,93499.77
2019-01-31T20:50:42.512Z,93501.50
2019-01-31T20:53:10.616Z,93504.52
2019-01-31T20:55:38.579Z,93509.14
2019-01-31T20:58:07.262Z,93500.05
2019-01-31T21:00:37.501Z,93498.78
2019-01-31T21:03:09.378Z,93498.78
2019-01-31T21:05:37.718Z,93486.98
2019-01-31T21:08:07.087Z,93486.98
2019-01-31T21:10:35.964Z,93479.49
2019-01-31T21:13:05.009Z,93479.49
2019-01-31T21:15:33.286Z,93483.69
2019-01-31T21:18:01.474Z,93483.53
2019-01-31T21:20:29.868Z,93477.77
2019-01-31T21:22:57.943Z,93471.09
2019-01-31T21:25:25.890Z,93458.42
2019-01-31T21:27:54.022Z,93441.63
2019-01-31T21:30:28.782Z,93441.63
2019-01-31T21:32:56.683Z,93440.22
2019-01-31T21:35:26.921Z,93450.32
2019-01-31T21:37:55.078Z,93452.75
2019-01-31T21:40:23.513Z,93452.75
2019-01-31T21:42:51.237Z,93448.53
2019-01-31T21:45:19.075Z,93444.23
2019-01-31T21:47:47.062Z,93446.35
2019-01-31T21:50:17.121Z,93452.11
2019-01-31T21:52:44.836Z,93452.11
2019-01-31T21:55:13.056Z,93445.44
2019-01-31T21:57:40.902Z,93454.84
2019-01-31T22:00:20.589Z,93453.48
2019-01-31T22:02:48.361Z,93455.13
2019-01-31T22:05:16.186Z,93444.75
2019-01-31T22:07:44.021Z,93462.80
2019-01-31T22:10:12.900Z,93462.80
2019-01-31T22:12:40.501Z,93460.16
2019-01-31T22:15:14.349Z,93452.30
2019-01-31T22:17:41.813Z,93452.30
2019-01-31T22:20:10.531Z,93451.15
2019-01-31T22:22:38.109Z,93442.78
2019-01-31T22:25:08.108Z,93442.78
2019-01-31T22:27:35.541Z,93435.70
2019-01-31T22:30:05.303Z,93435.70
2019-01-31T22:32:32.821Z,93432.02
2019-01-31T22:35:00.344Z,93428.88
2019-01-31T22:37:27.861Z,93428.88
2019-01-31T22:39:55.951Z,93434.70
2019-01-31T22:42:23.706Z,93436.77
2019-01-31T22:44:51.221Z,93429.95
2019-01-31T22:47:25.786Z,93429.95
2019-01-31T22:49:48.260Z,93413.76
2019-01-31T22:52:15.785Z,93414.31
2019-01-31T22:54:43.304Z,93418.83
2019-01-31T22:57:10.989Z,93410.56
2019-01-31T22:59:38.823Z,93410.56
2019-01-31T23:02:10.663Z,93411.22
2019-01-31T23:04:38.312Z,93424.56
2019-01-31T23:07:06.171Z,93424.56
2019-01-31T23:09:33.874Z,93421.33
2019-01-31T23:12:01.478Z,93424.04
2019-01-31T23:14:28.982Z,93418.58
2019-01-31T23:16:56.428Z,93414.77
2019-01-31T23:19:24.021Z,93414.77
2019-01-31T23:21:51.721Z,93415.26
2019-01-31T23:24:19.389Z,93411.69
2019-01-31T23:26:46.901Z,93431.48
2019-01-31T23:29:14.775Z,93431.48
2019-01-31T23:31:42.343Z,93422.98
2019-01-31T23:34:09.861Z,93426.08
2019-01-31T23:36:37.304Z,93414.09
2019-01-31T23:39:09.541Z,93414.16
2019-01-31T23:41:37.309Z,93401.48
2019-01-31T23:44:05.061Z,93390.09
2019-01-31T23:46:32.659Z,93399.39
2019-01-31T23:49:00.249Z,93374.84
2019-01-31T23:51:27.957Z,93369.59
2019-01-31T23:53:55.463Z,93369.59
2019-01-31T23:56:23.862Z,93367.30
2019-01-31T23:58:51.361Z,93367.30
